Time;durP1;ratioP1;P1;durP2;ratioP2;P2;SDS_P1;SDS_P2;PMS_P1;PMS_P2;Temp;Humidity;BMP_temperature;BMP_pressure;BME280_temperature;BME280_humidity;BME280_pressure;Samples;Min_cycle;Max_cycle;Signal;HPM_P1;HPM_P2
2021/07/26 00:00:47;;;;;;;3.10;2.45;;;16.80;99.90;;;;;;1979084;72;21135;-79
2021/07/26 00:03:13;;;;;;;5.50;2.83;;;16.80;99.90;;;;;;1979155;71;21088;-79
2021/07/26 00:05:39;;;;;;;3.33;2.60;;;16.80;99.90;;;;;;1979005;72;21161;-79
2021/07/26 00:08:05;;;;;;;2.85;2.65;;;16.80;99.90;;;;;;1979028;71;21153;-78
2021/07/26 00:10:31;;;;;;;8.18;3.17;;;16.90;99.90;;;;;;1979078;72;21076;-79
2021/07/26 00:12:59;;;;;;;4.67;2.42;;;16.90;99.90;;;;;;1978981;72;21064;-78
2021/07/26 00:15:25;;;;;;;8.15;2.65;;;16.90;99.90;;;;;;1979189;72;21059;-78
2021/07/26 00:17:51;;;;;;;3.90;2.25;;;16.90;99.90;;;;;;1979177;72;21051;-78
2021/07/26 00:20:17;;;;;;;6.25;2.20;;;16.90;99.90;;;;;;1978992;72;21135;-78
2021/07/26 00:22:43;;;;;;;2.45;2.25;;;16.90;99.90;;;;;;1979193;71;21193;-78
2021/07/26 00:25:09;;;;;;;3.40;2.75;;;16.80;99.90;;;;;;1978968;72;21080;-78
2021/07/26 00:27:36;;;;;;;10.72;3.20;;;16.80;99.90;;;;;;1979160;72;21088;-78
2021/07/26 00:30:02;;;;;;;9.73;3.00;;;16.80;99.90;;;;;;1979007;72;21165;-79
2021/07/26 00:32:29;;;;;;;4.78;2.55;;;16.70;99.90;;;;;;1979149;72;21080;-79
2021/07/26 00:34:55;;;;;;;6.55;2.60;;;16.80;99.90;;;;;;1978908;72;21177;-79
2021/07/26 00:37:26;;;;;;;7.90;2.58;;;16.80;99.90;;;;;;1979367;72;21133;-79
2021/07/26 00:39:49;;;;;;;8.20;2.42;;;16.70;99.90;;;;;;1978411;72;21084;-78
2021/07/26 00:42:15;;;;;;;4.37;2.95;;;16.80;99.90;;;;;;1952031;72;21120;-79
2021/07/26 00:44:42;;;;;;;3.67;2.40;;;16.70;99.90;;;;;;1979228;72;21051;-79
2021/07/26 00:47:08;;;;;;;11.18;2.77;;;16.80;99.90;;;;;;1979007;72;21097;-79
2021/07/26 00:49:34;;;;;;;3.75;2.67;;;16.70;99.90;;;;;;1978984;72;21059;-79
2021/07/26 00:52:00;;;;;;;5.08;2.72;;;16.70;99.90;;;;;;1979210;72;21119;-78
2021/07/26 00:54:26;;;;;;;4.60;2.52;;;16.70;99.90;;;;;;1979280;72;21145;-79
2021/07/26 00:56:52;;;;;;;6.05;2.42;;;16.70;99.90;;;;;;1979322;71;21448;-78
2021/07/26 00:59:18;;;;;;;3.40;2.40;;;16.70;99.90;;;;;;1979169;71;21161;-78
2021/07/26 01:01:45;;;;;;;4.67;2.65;;;16.60;99.90;;;;;;1979149;72;21080;-79
2021/07/26 01:04:11;;;;;;;2.80;2.47;;;16.60;99.90;;;;;;1979152;72;21080;-79
2021/07/26 01:06:37;;;;;;;4.75;3.10;;;16.50;99.90;;;;;;1979243;72;21152;-79
2021/07/26 01:09:03;;;;;;;9.45;2.52;;;16.50;99.90;;;;;;1979164;72;21133;-79
2021/07/26 01:11:29;;;;;;;7.42;3.02;;;16.50;99.90;;;;;;1979170;72;21051;-79
2021/07/26 01:13:55;;;;;;;2.12;2.02;;;16.50;99.90;;;;;;1979232;71;21050;-78
2021/07/26 01:16:23;;;;;;;4.25;2.47;;;16.60;99.90;;;;;;1979077;72;21083;-79
2021/07/26 01:18:49;;;;;;;5.60;2.77;;;16.60;99.90;;;;;;1979173;72;21441;-79
2021/07/26 01:21:15;;;;;;;3.85;2.62;;;16.60;99.90;;;;;;1979261;72;21565;-78
2021/07/26 01:23:41;;;;;;;3.27;2.42;;;16.60;99.90;;;;;;1979220;72;21568;-78
2021/07/26 01:26:07;;;;;;;3.77;2.55;;;16.60;99.90;;;;;;1970433;72;21138;-78
2021/07/26 01:28:34;;;;;;;6.37;2.60;;;16.60;99.90;;;;;;1978727;72;21055;-79
2021/07/26 01:31:00;;;;;;;3.27;2.58;;;16.70;99.90;;;;;;1980177;72;21157;-79
2021/07/26 01:33:26;;;;;;;3.95;2.72;;;16.60;99.90;;;;;;1979100;72;21063;-78
2021/07/26 01:35:52;;;;;;;4.28;2.83;;;16.60;99.90;;;;;;1979051;72;21080;-78
2021/07/26 01:38:18;;;;;;;5.08;2.65;;;16.60;99.90;;;;;;1978178;72;21071;-78
2021/07/26 01:40:50;;;;;;;6.45;3.17;;;16.70;99.90;;;;;;1979062;72;21076;-79
2021/07/26 01:43:12;;;;;;;4.12;3.02;;;16.70;99.90;;;;;;1980662;71;21033;-79
2021/07/26 01:45:38;;;;;;;5.67;2.95;;;16.70;99.90;;;;;;1982717;71;21052;-78
2021/07/26 01:48:04;;;;;;;2.87;2.50;;;16.70;99.90;;;;;;1979705;72;21452;-79
2021/07/26 01:50:30;;;;;;;3.87;2.90;;;16.70;99.90;;;;;;1979326;72;21535;-78
2021/07/26 01:52:56;;;;;;;4.85;2.50;;;16.70;99.90;;;;;;1979287;71;21051;-78
2021/07/26 01:55:23;;;;;;;6.00;3.52;;;16.60;99.90;;;;;;1979163;72;21088;-78
2021/07/26 01:57:49;;;;;;;3.83;2.85;;;16.70;99.90;;;;;;1979208;72;21136;-78
2021/07/26 02:00:15;;;;;;;3.45;2.58;;;16.70;99.90;;;;;;1979015;72;21202;-78
2021/07/26 02:02:41;;;;;;;4.10;2.80;;;16.70;99.90;;;;;;1979192;72;21048;-78
2021/07/26 02:05:09;;;;;;;4.53;2.83;;;16.70;99.90;;;;;;1979054;72;21131;-79
2021/07/26 02:07:35;;;;;;;4.28;2.65;;;16.70;99.90;;;;;;1979076;72;21484;-78
2021/07/26 02:10:01;;;;;;;3.10;2.47;;;16.70;99.90;;;;;;1978953;72;21515;-79
2021/07/26 02:12:27;;;;;;;2.58;2.37;;;16.70;99.90;;;;;;1979223;72;21590;-78
2021/07/26 02:14:53;;;;;;;4.70;2.70;;;16.60;99.90;;;;;;1979014;72;21539;-79
2021/07/26 02:17:19;;;;;;;3.25;2.55;;;16.60;99.90;;;;;;1979228;72;21463;-78
2021/07/26 02:19:45;;;;;;;3.20;2.85;;;16.60;99.90;;;;;;1979229;72;21048;-79
2021/07/26 02:24:56;;;;;;;4.10;2.37;;;16.60;99.90;;;;;;1979234;72;21538;-79
2021/07/26 02:27:22;;;;;;;6.30;2.92;;;16.50;99.90;;;;;;1979243;72;21502;-78
2021/07/26 02:29:48;;;;;;;5.60;2.55;;;16.50;99.90;;;;;;1979001;72;21518;-78
2021/07/26 02:32:14;;;;;;;5.03;2.75;;;16.50;99.90;;;;;;1979164;71;21455;-79
2021/07/26 02:34:40;;;;;;;5.95;2.92;;;16.50;99.90;;;;;;1979024;72;21590;-78
2021/07/26 02:37:06;;;;;;;3.58;2.87;;;16.40;99.90;;;;;;1979228;72;21467;-79
2021/07/26 02:39:33;;;;;;;5.55;3.02;;;16.40;99.90;;;;;;1979010;72;21560;-79
2021/07/26 02:41:59;;;;;;;3.72;2.70;;;16.30;99.90;;;;;;1979241;72;21517;-79
2021/07/26 02:44:25;;;;;;;6.33;3.22;;;16.40;99.90;;;;;;1979113;72;21165;-78
2021/07/26 02:46:51;;;;;;;3.70;2.58;;;16.40;99.90;;;;;;1979202;72;21028;-80
2021/07/26 02:49:17;;;;;;;3.25;2.95;;;16.40;99.90;;;;;;1978981;72;21180;-79
2021/07/26 02:51:43;;;;;;;8.30;2.98;;;16.40;99.90;;;;;;1979023;72;21114;-79
2021/07/26 02:54:09;;;;;;;5.00;2.87;;;16.50;99.90;;;;;;1979208;72;21136;-79
2021/07/26 02:56:36;;;;;;;4.53;2.83;;;16.40;99.90;;;;;;1979009;72;21088;-79
2021/07/26 02:59:02;;;;;;;3.45;2.58;;;16.50;99.90;;;;;;1979221;72;21125;-79
2021/07/26 03:01:32;;;;;;;4.47;2.37;;;16.50;99.90;;;;;;1978999;72;21212;-79
2021/07/26 03:03:56;;;;;;;4.15;2.85;;;16.40;99.90;;;;;;1978645;72;21559;-78
2021/07/26 03:06:23;;;;;;;2.80;2.60;;;16.40;99.90;;;;;;1978991;72;21515;-79
2021/07/26 03:08:49;;;;;;;3.20;2.50;;;16.50;99.90;;;;;;1979109;72;21079;-78
2021/07/26 03:11:15;;;;;;;5.12;2.50;;;16.40;99.90;;;;;;1978972;72;21157;-79
2021/07/26 03:13:41;;;;;;;2.87;2.40;;;16.50;99.90;;;;;;1979133;72;21136;-78
2021/07/26 03:16:08;;;;;;;5.78;2.75;;;16.40;99.90;;;;;;1978987;72;21206;-78
2021/07/26 03:18:34;;;;;;;4.12;3.00;;;16.40;99.90;;;;;;1979190;72;21055;-79
2021/07/26 03:21:00;;;;;;;3.92;2.47;;;16.40;99.90;;;;;;1979097;72;21088;-78
2021/07/26 03:23:26;;;;;;;4.03;2.72;;;16.50;99.90;;;;;;1979137;72;21092;-78
2021/07/26 03:25:52;;;;;;;5.58;3.37;;;16.50;99.90;;;;;;1979060;72;21092;-78
2021/07/26 03:28:18;;;;;;;4.80;3.45;;;16.50;99.90;;;;;;1979171;72;21071;-78
2021/07/26 03:30:44;;;;;;;10.15;3.60;;;16.40;99.90;;;;;;1978959;72;21504;-79
2021/07/26 03:33:11;;;;;;;3.65;3.02;;;16.30;99.90;;;;;;1979150;72;21465;-78
2021/07/26 03:35:37;;;;;;;4.65;3.05;;;16.30;99.90;;;;;;1978963;72;21112;-78
2021/07/26 03:38:05;;;;;;;8.53;3.47;;;16.40;99.90;;;;;;1979066;72;21076;-79
2021/07/26 03:40:31;;;;;;;5.65;3.37;;;16.40;99.90;;;;;;1978993;72;21087;-78
2021/07/26 03:42:57;;;;;;;5.12;3.05;;;16.30;99.90;;;;;;1979149;72;21102;-79
2021/07/26 03:45:23;;;;;;;4.67;2.72;;;16.50;99.90;;;;;;1979117;72;21085;-78
2021/07/26 03:47:50;;;;;;;4.17;3.33;;;16.50;99.90;;;;;;1979154;72;21032;-78
2021/07/26 03:50:16;;;;;;;3.87;3.12;;;16.50;99.90;;;;;;1979176;72;21149;-79
2021/07/26 03:52:42;;;;;;;4.75;3.30;;;16.40;99.90;;;;;;1979091;72;21088;-79
2021/07/26 03:55:08;;;;;;;4.42;3.25;;;16.40;99.90;;;;;;1979181;72;21494;-77
2021/07/26 03:57:35;;;;;;;7.85;3.20;;;16.40;99.90;;;;;;1979130;72;21495;-77
2021/07/26 04:00:01;;;;;;;5.35;2.98;;;16.50;99.90;;;;;;1979196;72;21050;-78
2021/07/26 04:02:27;;;;;;;4.28;2.67;;;16.50;99.90;;;;;;1978973;71;21080;-77
2021/07/26 04:04:53;;;;;;;3.45;2.60;;;16.50;99.90;;;;;;1979165;72;21053;-78
2021/07/26 04:07:23;;;;;;;3.33;2.95;;;16.50;99.90;;;;;;1978916;72;21087;-78
2021/07/26 04:09:50;;;;;;;4.80;3.00;;;16.50;99.90;;;;;;1978495;72;21491;-77
2021/07/26 04:12:21;;;;;;;6.22;2.80;;;16.60;99.90;;;;;;1978856;72;21083;-78
2021/07/26 04:14:42;;;;;;;2.80;2.60;;;16.50;99.90;;;;;;1978057;72;21084;-80
2021/07/26 04:17:09;;;;;;;2.40;2.20;;;16.60;99.90;;;;;;1979003;72;21115;-78
2021/07/26 04:19:35;;;;;;;4.67;2.70;;;16.60;99.90;;;;;;1979015;72;21072;-77
2021/07/26 04:22:01;;;;;;;5.60;2.85;;;16.60;99.90;;;;;;1979159;71;21055;-78
2021/07/26 04:24:27;;;;;;;3.47;2.67;;;16.70;99.90;;;;;;1979035;72;21153;-77
2021/07/26 04:26:53;;;;;;;4.00;2.85;;;16.70;99.90;;;;;;1979172;72;21095;-77
2021/07/26 04:29:19;;;;;;;4.37;3.02;;;16.80;99.90;;;;;;1979160;72;21028;-77
2021/07/26 04:31:46;;;;;;;12.85;2.77;;;16.80;99.90;;;;;;1974207;72;21580;-78
2021/07/26 04:34:12;;;;;;;4.37;2.22;;;16.80;99.90;;;;;;1979154;71;21062;-78
2021/07/26 04:36:38;;;;;;;3.70;3.02;;;16.80;99.90;;;;;;1976757;72;21103;-77
2021/07/26 04:39:04;;;;;;;4.67;2.87;;;16.80;99.90;;;;;;1974773;72;21063;-77
2021/07/26 04:41:30;;;;;;;6.35;3.10;;;16.80;99.90;;;;;;1979234;72;21086;-78
2021/07/26 04:43:57;;;;;;;5.67;3.40;;;16.80;99.90;;;;;;1969315;72;21059;-78
2021/07/26 04:46:23;;;;;;;6.60;3.67;;;16.70;99.90;;;;;;1974746;72;21100;-78
2021/07/26 04:48:49;;;;;;;5.05;3.20;;;16.80;99.90;;;;;;1979130;71;21122;-78
2021/07/26 04:51:15;;;;;;;10.70;3.37;;;16.80;99.90;;;;;;1979246;71;21036;-78
2021/07/26 04:53:41;;;;;;;4.90;3.42;;;16.90;99.90;;;;;;1979178;72;21088;-78
2021/07/26 04:56:07;;;;;;;7.35;3.80;;;16.80;99.90;;;;;;1979138;72;21091;-78
2021/07/26 04:58:34;;;;;;;7.35;3.42;;;16.90;99.90;;;;;;1979155;72;21025;-77
2021/07/26 05:01:00;;;;;;;4.50;3.12;;;17.00;99.90;;;;;;1979087;72;21165;-78
2021/07/26 05:03:26;;;;;;;7.67;2.85;;;16.80;99.90;;;;;;1974247;72;21092;-77
2021/07/26 05:05:52;;;;;;;4.45;2.37;;;16.90;99.90;;;;;;1979261;72;21063;-78
2021/07/26 05:08:18;;;;;;;8.20;3.35;;;17.00;99.90;;;;;;1972897;72;21106;-78
2021/07/26 05:10:45;;;;;;;6.67;3.55;;;16.90;99.90;;;;;;1979029;72;21177;-78
2021/07/26 05:13:11;;;;;;;7.50;3.35;;;16.90;99.90;;;;;;1979223;72;21480;-78
2021/07/26 05:15:37;;;;;;;11.18;3.75;;;16.90;99.90;;;;;;1979070;72;21068;-79
2021/07/26 05:18:03;;;;;;;5.87;3.10;;;16.90;99.90;;;;;;1979456;72;21059;-79
2021/07/26 05:20:32;;;;;;;5.53;2.95;;;17.20;99.90;;;;;;1979083;72;21161;-78
2021/07/26 05:22:57;;;;;;;4.03;2.65;;;17.30;99.90;;;;;;1979047;72;21157;-77
2021/07/26 05:25:23;;;;;;;4.37;3.05;;;17.30;99.90;;;;;;1979147;71;20996;-77
2021/07/26 05:27:49;;;;;;;7.53;2.87;;;17.30;99.90;;;;;;1979093;72;21091;-79
2021/07/26 05:30:15;;;;;;;7.30;2.55;;;17.30;99.90;;;;;;1979051;72;21520;-79
2021/07/26 05:32:41;;;;;;;3.10;2.75;;;17.30;99.90;;;;;;1979102;72;21461;-79
2021/07/26 05:35:08;;;;;;;7.33;3.65;;;17.30;99.90;;;;;;1979135;72;21453;-79
2021/07/26 05:37:34;;;;;;;3.33;3.02;;;17.20;99.90;;;;;;1979131;72;21479;-79
2021/07/26 05:40:00;;;;;;;4.35;3.27;;;17.20;99.90;;;;;;1979107;72;21129;-79
2021/07/26 05:42:26;;;;;;;6.15;3.05;;;17.20;99.90;;;;;;1979120;72;21079;-81
2021/07/26 05:44:53;;;;;;;5.35;3.15;;;17.40;99.90;;;;;;1979125;72;21068;-81
2021/07/26 05:47:19;;;;;;;6.45;2.75;;;17.50;99.90;;;;;;1979078;71;21524;-81
2021/07/26 05:49:47;;;;;;;2.95;2.40;;;17.50;99.90;;;;;;1979253;72;21043;-80
2021/07/26 05:52:13;;;;;;;4.67;2.75;;;17.60;99.90;;;;;;1979056;72;21076;-80
2021/07/26 05:54:39;;;;;;;3.92;3.30;;;17.60;99.90;;;;;;1979242;71;21090;-78
2021/07/26 05:57:10;;;;;;;6.33;3.05;;;17.70;99.90;;;;;;1979049;72;21154;-80
2021/07/26 05:59:33;;;;;;;4.22;2.52;;;18.00;99.90;;;;;;1977949;72;21115;-79
2021/07/26 06:01:59;;;;;;;5.15;3.02;;;18.20;99.90;;;;;;1979148;72;21135;-80
2021/07/26 06:04:25;;;;;;;4.78;2.20;;;18.50;99.90;;;;;;1979149;72;21079;-80
2021/07/26 06:06:51;;;;;;;2.90;2.70;;;19.30;99.90;;;;;;1979277;72;21048;-79
2021/07/26 06:09:17;;;;;;;6.08;3.00;;;20.20;99.90;;;;;;1979261;72;21020;-80
2021/07/26 06:11:43;;;;;;;2.75;2.50;;;21.30;99.90;;;;;;1982200;71;21189;-80
2021/07/26 06:14:10;;;;;;;7.25;2.40;;;22.10;99.90;;;;;;1982728;71;21161;-80
2021/07/26 06:16:36;;;;;;;4.65;2.45;;;22.40;99.90;;;;;;1980061;72;21156;-80
2021/07/26 06:19:08;;;;;;;3.30;2.08;;;22.10;99.90;;;;;;1979295;72;21023;-80
2021/07/26 06:21:30;;;;;;;3.10;1.95;;;22.80;99.90;;;;;;1977971;72;21073;-80
2021/07/26 06:23:56;;;;;;;4.17;2.30;;;23.70;99.90;;;;;;1979266;72;21122;-80
2021/07/26 06:26:22;;;;;;;3.45;2.12;;;24.60;99.90;;;;;;1979015;72;21153;-79
2021/07/26 06:28:49;;;;;;;4.10;2.42;;;25.00;99.90;;;;;;1979123;72;21340;-80
2021/07/26 06:31:16;;;;;;;6.30;2.00;;;25.30;99.90;;;;;;1978995;71;21151;-80
2021/07/26 06:33:42;;;;;;;3.20;1.90;;;24.80;99.90;;;;;;1979241;72;21060;-80
2021/07/26 06:36:08;;;;;;;3.10;1.80;;;24.80;99.90;;;;;;1979045;71;21084;-78
2021/07/26 06:38:36;;;;;;;5.10;1.90;;;25.00;99.90;;;;;;1979400;71;21028;-80
2021/07/26 06:41:02;;;;;;;4.55;1.72;;;25.20;99.90;;;;;;1979094;71;21545;-79
2021/07/26 06:43:28;;;;;;;5.50;1.90;;;25.50;99.90;;;;;;1979162;72;21109;-83
2021/07/26 06:45:54;;;;;;;3.52;1.95;;;25.90;99.90;;;;;;1979044;72;21076;-83
2021/07/26 06:48:22;;;;;;;15.60;2.15;;;25.70;99.90;;;;;;1979195;72;21150;-86
2021/07/26 06:50:48;;;;;;;2.60;1.90;;;25.80;99.90;;;;;;1979120;72;21182;-86
2021/07/26 06:53:14;;;;;;;8.20;2.02;;;26.40;99.90;;;;;;1979266;72;21035;-86
2021/07/26 06:55:41;;;;;;;5.90;1.95;;;26.70;99.90;;;;;;1979128;72;21092;-86
2021/07/26 06:58:08;;;;;;;4.37;1.85;;;26.40;99.90;;;;;;1979253;71;21064;-86
2021/07/26 07:00:34;;;;;;;5.67;2.10;;;25.80;99.90;;;;;;1979432;72;21124;-85
2021/07/26 07:03:00;;;;;;;4.30;2.50;;;24.70;99.90;;;;;;1979254;72;21035;-86
2021/07/26 07:05:26;;;;;;;7.70;2.52;;;24.40;99.90;;;;;;1978837;72;21059;-87
2021/07/26 07:07:52;;;;;;;3.85;2.58;;;23.20;99.90;;;;;;1979423;71;21027;-87
2021/07/26 07:10:18;;;;;;;13.43;2.50;;;22.10;99.90;;;;;;1979381;72;21055;-79
2021/07/26 07:12:44;;;;;;;6.58;2.58;;;21.60;99.90;;;;;;1979168;72;21052;-78
2021/07/26 07:15:11;;;;;;;5.60;2.58;;;21.50;99.90;;;;;;1979107;72;21083;-78
2021/07/26 07:17:37;;;;;;;5.33;2.10;;;21.40;99.90;;;;;;1979242;71;21060;-80
2021/07/26 07:20:03;;;;;;;11.70;2.55;;;21.40;99.90;;;;;;1979064;71;21084;-80
2021/07/26 07:22:29;;;;;;;6.15;2.77;;;21.40;99.90;;;;;;1979266;72;21175;-79
2021/07/26 07:24:55;;;;;;;8.65;2.70;;;21.30;99.90;;;;;;1979035;72;21069;-79
2021/07/26 07:27:21;;;;;;;3.67;2.80;;;21.30;99.90;;;;;;1979349;72;21047;-80
2021/07/26 07:29:47;;;;;;;11.35;3.25;;;21.30;99.90;;;;;;1979443;72;21099;-80
2021/07/26 07:32:13;;;;;;;9.13;3.62;;;21.30;99.90;;;;;;1979213;72;21063;-78
2021/07/26 07:34:40;;;;;;;8.53;3.17;;;21.40;99.90;;;;;;1979072;72;21107;-80
2021/07/26 07:37:08;;;;;;;6.83;3.33;;;21.50;99.90;;;;;;1979277;72;21024;-74
2021/07/26 07:39:33;;;;;;;6.30;3.27;;;21.50;99.90;;;;;;1978871;72;21562;-74
2021/07/26 07:42:00;;;;;;;7.12;3.00;;;21.70;99.90;;;;;;1969897;71;21596;-74
2021/07/26 07:44:29;;;;;;;14.15;3.55;;;21.70;99.90;;;;;;1979239;72;21548;-73
2021/07/26 07:46:54;;;;;;;9.70;2.90;;;21.70;99.90;;;;;;1978672;72;21060;-73
2021/07/26 07:49:21;;;;;;;6.80;3.15;;;21.90;99.90;;;;;;1979130;72;21103;-74
2021/07/26 07:51:48;;;;;;;6.53;3.40;;;22.20;99.90;;;;;;1979180;71;21083;-74
2021/07/26 07:54:14;;;;;;;5.87;3.20;;;22.80;99.90;;;;;;1979123;72;21227;-74
2021/07/26 07:56:42;;;;;;;5.00;2.60;;;22.80;99.90;;;;;;1979252;72;21128;-74
2021/07/26 07:59:10;;;;;;;14.73;2.92;;;23.40;99.90;;;;;;1979158;72;21088;-74
2021/07/26 08:01:36;;;;;;;10.00;2.70;;;23.80;99.90;;;;;;1979151;72;21073;-72
2021/07/26 08:04:02;;;;;;;3.72;2.35;;;23.70;99.90;;;;;;1978134;72;21063;-72
2021/07/26 08:06:28;;;;;;;4.08;2.52;;;23.80;99.90;;;;;;1979296;72;21140;-70
2021/07/26 08:08:54;;;;;;;3.15;2.30;;;23.80;99.90;;;;;;1979343;72;21024;-73
2021/07/26 08:11:20;;;;;;;6.12;3.00;;;23.80;99.90;;;;;;1979221;72;21070;-74
2021/07/26 08:13:46;;;;;;;3.87;2.20;;;23.70;99.90;;;;;;1979251;72;21198;-74
2021/07/26 08:16:14;;;;;;;4.72;2.52;;;23.70;99.90;;;;;;1979218;72;21032;-74
2021/07/26 08:18:40;;;;;;;5.15;2.50;;;23.80;99.90;;;;;;1979225;72;21071;-73
2021/07/26 08:21:06;;;;;;;5.12;2.45;;;24.60;99.90;;;;;;1979155;72;21063;-74
2021/07/26 08:23:32;;;;;;;3.40;2.15;;;24.70;99.90;;;;;;1979060;71;21499;-74
2021/07/26 08:25:58;;;;;;;3.92;2.20;;;25.40;99.90;;;;;;1979400;72;21540;-74
2021/07/26 08:28:24;;;;;;;6.00;2.52;;;26.10;99.90;;;;;;1979372;72;21412;-74
2021/07/26 08:30:50;;;;;;;2.83;2.02;;;25.70;99.90;;;;;;1979232;72;21483;-74
2021/07/26 08:33:17;;;;;;;5.10;2.27;;;25.20;99.90;;;;;;1979157;71;21616;-73
2021/07/26 08:35:43;;;;;;;4.83;2.27;;;24.90;99.90;;;;;;1979228;72;21116;-74
2021/07/26 08:38:09;;;;;;;2.77;1.90;;;25.20;99.90;;;;;;1979330;72;21075;-74
2021/07/26 08:40:36;;;;;;;3.58;2.20;;;25.80;99.90;;;;;;1979326;72;21133;-74
2021/07/26 08:43:08;;;;;;;4.17;2.22;;;25.60;99.90;;;;;;1979175;72;21096;-73
2021/07/26 08:45:32;;;;;;;2.85;1.90;;;25.40;99.90;;;;;;1978711;72;21087;-74
2021/07/26 08:47:59;;;;;;;5.95;2.47;;;25.90;99.90;;;;;;1979398;72;21028;-74
2021/07/26 08:50:25;;;;;;;7.47;2.30;;;26.10;99.90;;;;;;1979142;72;21059;-74
2021/07/26 08:52:51;;;;;;;5.70;2.25;;;26.10;99.90;;;;;;1979404;72;21136;-74
2021/07/26 08:55:17;;;;;;;1.95;1.82;;;26.30;99.90;;;;;;1979393;72;21088;-74
2021/07/26 08:57:43;;;;;;;5.25;2.30;;;26.10;99.90;;;;;;1979549;72;21055;-74
2021/07/26 09:00:09;;;;;;;5.28;2.22;;;26.30;99.90;;;;;;1979149;72;21157;-74
2021/07/26 09:02:35;;;;;;;3.22;1.72;;;26.10;99.90;;;;;;1979158;72;21125;-74
2021/07/26 09:05:01;;;;;;;1.65;1.55;;;26.60;99.90;;;;;;1979366;72;21051;-74
2021/07/26 09:07:28;;;;;;;5.10;1.92;;;26.60;99.90;;;;;;1979435;72;21063;-74
2021/07/26 09:09:54;;;;;;;3.27;1.80;;;27.20;99.90;;;;;;1979335;72;21055;-74
2021/07/26 09:12:20;;;;;;;3.62;1.75;;;26.90;99.90;;;;;;1979146;72;21135;-74
2021/07/26 09:14:46;;;;;;;3.27;1.77;;;26.50;99.90;;;;;;1979350;72;21067;-74
2021/07/26 09:17:12;;;;;;;2.52;1.70;;;26.10;99.90;;;;;;1979162;72;21095;-74
2021/07/26 09:19:38;;;;;;;1.70;1.60;;;26.50;99.90;;;;;;1979354;72;21047;-73
2021/07/26 09:22:05;;;;;;;5.80;1.92;;;26.90;99.90;;;;;;1979131;72;21088;-74
2021/07/26 09:24:31;;;;;;;2.27;1.60;;;27.40;99.90;;;;;;1979458;71;21067;-74
2021/07/26 09:26:57;;;;;;;3.05;2.02;;;26.40;99.90;;;;;;1979107;72;21080;-72
2021/07/26 09:29:23;;;;;;;3.55;1.98;;;26.60;99.90;;;;;;1960535;72;21215;-72
2021/07/26 09:31:49;;;;;;;3.58;2.02;;;26.90;99.90;;;;;;1969072;72;21084;-73
2021/07/26 09:34:15;;;;;;;5.55;2.17;;;27.00;99.90;;;;;;1979836;72;21120;-73
2021/07/26 09:36:41;;;;;;;2.37;1.55;;;26.80;99.90;;;;;;1970102;72;21040;-73
2021/07/26 09:39:07;;;;;;;3.55;2.15;;;26.70;99.90;;;;;;1979368;72;21129;-74
2021/07/26 09:41:34;;;;;;;2.12;1.80;;;26.40;99.90;;;;;;1969449;72;21063;-73
2021/07/26 09:44:00;;;;;;;13.18;2.20;;;26.30;99.90;;;;;;1979292;72;21099;-73
2021/07/26 09:46:27;;;;;;;6.37;2.10;;;26.50;99.90;;;;;;1979387;72;21020;-72
2021/07/26 09:48:53;;;;;;;6.85;2.02;;;27.30;99.90;;;;;;1979308;72;21036;-72
2021/07/26 09:51:19;;;;;;;2.35;2.02;;;27.30;99.90;;;;;;1979033;72;21184;-72
2021/07/26 09:53:45;;;;;;;4.53;1.80;;;26.90;99.90;;;;;;1979323;72;21121;-72
2021/07/26 09:56:11;;;;;;;5.22;1.98;;;27.40;99.90;;;;;;1979057;72;21166;-76
2021/07/26 10:01:23;;;;;;;3.17;1.70;;;27.20;99.90;;;;;;1938972;74;21086;-74
2021/07/26 10:03:49;;;;;;;3.75;1.90;;;27.90;99.90;;;;;;1941104;74;21152;-74
2021/07/26 10:06:15;;;;;;;1.72;1.60;;;28.00;99.90;;;;;;1941232;74;21070;-74
2021/07/26 10:08:41;;;;;;;3.55;1.80;;;28.20;99.90;;;;;;1941238;73;21074;-75
2021/07/26 10:11:07;;;;;;;1.95;1.75;;;27.50;99.90;;;;;;1941316;74;21058;-76
2021/07/26 10:13:33;;;;;;;4.37;1.87;;;27.50;99.90;;;;;;1943818;73;21132;-75
2021/07/26 10:15:59;;;;;;;3.15;1.85;;;27.30;99.90;;;;;;1941713;73;21058;-75
2021/07/26 10:18:26;;;;;;;2.92;1.57;;;27.80;99.90;;;;;;1941241;74;21109;-75
2021/07/26 10:20:53;;;;;;;4.35;1.70;;;27.60;99.90;;;;;;1941248;73;21225;-76
2021/07/26 10:23:19;;;;;;;1.92;1.62;;;27.90;99.90;;;;;;1941227;74;21062;-75
2021/07/26 10:25:45;;;;;;;1.57;1.47;;;28.30;99.90;;;;;;1944310;73;21061;-76
2021/07/26 10:28:11;;;;;;;8.65;1.70;;;27.60;99.90;;;;;;1941270;74;21071;-77
2021/07/26 10:30:37;;;;;;;1.77;1.60;;;27.80;99.90;;;;;;1941299;73;21121;-85
2021/07/26 10:33:03;;;;;;;1.50;1.40;;;28.40;99.90;;;;;;1941350;74;21055;-75
2021/07/26 10:35:30;;;;;;;10.72;1.90;;;28.20;99.90;;;;;;1941191;74;21042;-76
2021/07/26 10:37:56;;;;;;;2.27;1.75;;;28.30;99.90;;;;;;1941189;74;21168;-75
2021/07/26 10:40:22;;;;;;;2.15;1.92;;;28.20;99.90;;;;;;1941422;73;21089;-75
2021/07/26 10:42:49;;;;;;;2.17;1.98;;;28.00;99.90;;;;;;1941906;74;21099;-75
2021/07/26 10:45:15;;;;;;;3.77;1.72;;;27.30;99.90;;;;;;1941090;74;21015;-75
2021/07/26 10:47:41;;;;;;;4.80;1.65;;;27.50;99.90;;;;;;1944936;74;21054;-74
2021/07/26 10:50:07;;;;;;;2.95;1.50;;;28.50;99.90;;;;;;1944567;74;21022;-74
2021/07/26 10:52:33;;;;;;;4.50;1.80;;;28.60;99.90;;;;;;1942194;73;21067;-74
2021/07/26 10:55:02;;;;;;;5.50;2.05;;;28.20;99.90;;;;;;1941079;73;21011;-75
2021/07/26 10:57:27;;;;;;;2.40;1.72;;;27.50;99.90;;;;;;1941602;72;21534;-76
2021/07/26 10:59:53;;;;;;;2.12;1.50;;;27.10;99.90;;;;;;1941194;74;21553;-77
2021/07/26 11:02:19;;;;;;;2.37;1.45;;;27.40;99.90;;;;;;1941671;73;21496;-75
2021/07/26 11:04:45;;;;;;;6.75;1.90;;;28.20;99.90;;;;;;1941309;73;21439;-75
2021/07/26 11:07:12;;;;;;;4.25;1.70;;;28.70;99.90;;;;;;1941426;73;21101;-75
2021/07/26 11:09:38;;;;;;;4.92;1.62;;;28.70;99.90;;;;;;1941476;73;21093;-75
2021/07/26 11:12:05;;;;;;;2.60;1.50;;;28.70;99.90;;;;;;1941807;73;21047;-76
2021/07/26 11:14:31;;;;;;;2.30;1.65;;;28.10;99.90;;;;;;1941388;73;21475;-75
2021/07/26 11:17:19;;;;;;;4.87;1.82;;;27.90;99.90;;;;;;1941422;74;21473;-76
2021/07/26 11:19:25;;;;;;;1.90;1.47;;;27.80;99.90;;;;;;1942018;72;21104;-75
2021/07/26 11:21:51;;;;;;;4.55;1.75;;;27.70;99.90;;;;;;1941820;73;21063;-74
2021/07/26 11:24:17;;;;;;;4.62;1.70;;;28.40;99.90;;;;;;1941204;74;21062;-74
2021/07/26 11:26:43;;;;;;;3.77;2.02;;;28.90;99.90;;;;;;1941412;74;21125;-74
2021/07/26 11:29:09;;;;;;;4.60;1.60;;;29.60;99.90;;;;;;1941144;74;21058;-72
2021/07/26 11:31:38;;;;;;;2.33;1.75;;;29.80;99.90;;;;;;1941173;74;21034;-72
2021/07/26 11:34:04;;;;;;;6.03;1.80;;;29.90;99.90;;;;;;1941259;72;21101;-72
2021/07/26 11:36:30;;;;;;;4.15;1.67;;;30.00;99.90;;;;;;1941120;74;21532;-72
2021/07/26 11:38:56;;;;;;;2.80;1.60;;;29.80;99.90;;;;;;1941075;74;21427;-72
2021/07/26 11:41:22;;;;;;;1.62;1.52;;;29.60;99.90;;;;;;1941187;74;21094;-73
2021/07/26 11:43:48;;;;;;;4.10;1.50;;;29.50;99.90;;;;;;1941089;74;21046;-74
2021/07/26 11:46:15;;;;;;;3.12;2.10;;;29.50;99.90;;;;;;1941260;74;21047;-72
2021/07/26 11:48:41;;;;;;;2.58;1.85;;;29.40;99.90;;;;;;1941250;74;21015;-73
2021/07/26 11:51:07;;;;;;;6.47;1.50;;;29.60;99.90;;;;;;1941198;74;21120;-72
2021/07/26 11:53:34;;;;;;;5.85;1.60;;;29.80;99.90;;;;;;1941339;73;21105;-71
2021/07/26 11:56:00;;;;;;;3.72;2.05;;;29.20;99.90;;;;;;1941333;73;21055;-72
2021/07/26 11:58:26;;;;;;;12.78;1.75;;;29.10;99.90;;;;;;1941483;73;21120;-74
2021/07/26 12:00:52;;;;;;;5.20;1.62;;;28.20;99.90;;;;;;1941213;74;21159;-75
2021/07/26 12:03:20;;;;;;;7.00;2.00;;;28.50;99.90;;;;;;1941138;74;21178;-75
2021/07/26 12:05:46;;;;;;;1.70;1.47;;;28.80;99.90;;;;;;1943688;73;21188;-77
2021/07/26 12:08:12;;;;;;;2.58;1.82;;;28.90;99.90;;;;;;1941212;74;21164;-75
2021/07/26 12:10:38;;;;;;;3.27;1.70;;;28.20;99.90;;;;;;1941440;73;21498;-73
2021/07/26 12:13:05;;;;;;;8.90;1.85;;;27.30;99.90;;;;;;1941111;73;21446;-77
2021/07/26 12:15:31;;;;;;;2.40;1.72;;;27.20;99.90;;;;;;1941094;74;21495;-76
2021/07/26 12:17:57;;;;;;;7.10;1.87;;;27.40;99.90;;;;;;1941244;73;21361;-76
2021/07/26 12:20:23;;;;;;;1.77;1.50;;;27.60;99.90;;;;;;1941194;74;21526;-76
2021/07/26 12:22:49;;;;;;;3.87;1.90;;;27.50;99.90;;;;;;1941041;73;21575;-76
2021/07/26 12:25:15;;;;;;;3.35;1.80;;;27.30;99.90;;;;;;1941156;74;21467;-76
2021/07/26 12:27:41;;;;;;;5.87;1.98;;;27.30;99.90;;;;;;1941200;73;21428;-76
2021/07/26 12:30:13;;;;;;;4.00;2.10;;;27.20;99.90;;;;;;1941146;74;21116;-80
2021/07/26 12:32:35;;;;;;;2.67;1.80;;;27.00;99.90;;;;;;1941330;72;21074;-78
2021/07/26 12:35:01;;;;;;;3.37;1.75;;;27.00;99.90;;;;;;1941282;73;21070;-78
2021/07/26 12:37:28;;;;;;;9.53;1.80;;;27.00;99.90;;;;;;1941086;73;21024;-76
2021/07/26 12:39:54;;;;;;;2.75;1.87;;;26.90;99.90;;;;;;1941164;73;21139;-76
2021/07/26 12:42:20;;;;;;;4.95;1.85;;;26.90;99.90;;;;;;1941146;74;21430;-75
2021/07/26 12:44:46;;;;;;;7.87;2.08;;;26.70;99.90;;;;;;1941721;73;21514;-75